createdAt,value
2017-08-10T00:01:53.382Z,3.25
2017-08-10T00:04:21.487Z,3.15
2017-08-10T00:06:49.954Z,3.17
2017-08-10T00:09:18.021Z,3.25
2017-08-10T00:11:46.110Z,3.15
2017-08-10T00:14:14.978Z,3.30
2017-08-10T00:16:43.053Z,3.50
2017-08-10T00:19:11.123Z,2.37
2017-08-10T00:21:39.218Z,3.03
2017-08-10T00:24:08.053Z,2.70
2017-08-10T00:26:36.155Z,2.30
2017-08-10T00:29:04.227Z,2.42
2017-08-10T00:31:32.678Z,2.12
2017-08-10T00:34:00.766Z,3.10
2017-08-10T00:36:28.842Z,2.50
2017-08-10T00:38:56.929Z,2.70
2017-08-10T00:41:25.006Z,2.45
2017-08-10T00:43:53.538Z,2.20
2017-08-10T00:46:21.607Z,2.50
2017-08-10T00:48:49.677Z,2.03
2017-08-10T00:51:17.774Z,2.08
2017-08-10T00:53:46.614Z,2.35
2017-08-10T00:56:15.478Z,2.62
2017-08-10T00:58:43.554Z,2.25
2017-08-10T01:01:11.622Z,1.85
2017-08-10T01:03:39.730Z,2.33
2017-08-10T01:06:08.426Z,2.60
2017-08-10T01:08:36.501Z,2.40
2017-08-10T01:11:04.591Z,3.30
2017-08-10T01:13:32.666Z,2.97
2017-08-10T01:16:01.149Z,3.05
2017-08-10T01:18:29.218Z,3.25
2017-08-10T01:20:57.325Z,4.03
2017-08-10T01:23:25.785Z,3.25
2017-08-10T01:26:01.065Z,3.12
2017-08-10T01:28:29.138Z,3.28
2017-08-10T01:30:57.974Z,4.10
2017-08-10T01:33:26.058Z,4.18
2017-08-10T01:35:54.170Z,4.07
2017-08-10T01:38:22.233Z,3.85
2017-08-10T01:40:50.310Z,3.03
2017-08-10T01:43:19.162Z,3.20
2017-08-10T01:45:47.241Z,2.87
2017-08-10T01:48:15.374Z,3.03
2017-08-10T01:50:43.441Z,3.10
2017-08-10T01:53:11.516Z,2.03
2017-08-10T01:55:39.615Z,2.05
2017-08-10T01:58:08.538Z,2.05
2017-08-10T02:00:36.651Z,2.42
2017-08-10T02:03:04.846Z,2.28
2017-08-10T02:05:32.918Z,2.30
2017-08-10T02:08:01.054Z,1.80
2017-08-10T02:10:29.885Z,2.00
2017-08-10T02:12:57.962Z,1.70
2017-08-10T02:15:26.046Z,1.80
2017-08-10T02:17:54.122Z,1.92
2017-08-10T02:20:22.214Z,2.40
2017-08-10T02:22:50.281Z,2.75
2017-08-10T02:25:18.390Z,3.30
2017-08-10T02:27:46.910Z,3.12
2017-08-10T02:30:15.713Z,2.65
2017-08-10T02:32:43.818Z,2.80
2017-08-10T02:35:12.659Z,2.30
2017-08-10T02:37:40.734Z,2.10
2017-08-10T02:40:08.822Z,2.67
2017-08-10T02:42:36.894Z,2.35
2017-08-10T02:45:04.992Z,2.70
2017-08-10T02:47:33.053Z,2.70
2017-08-10T02:50:01.923Z,2.67
2017-08-10T02:52:29.995Z,2.40
2017-08-10T02:54:58.074Z,2.95
2017-08-10T02:57:26.162Z,2.30
2017-08-10T02:59:54.233Z,2.40
2017-08-10T03:02:22.325Z,2.10
2017-08-10T03:04:51.162Z,1.70
2017-08-10T03:07:19.250Z,2.08
2017-08-10T03:09:47.322Z,2.12
2017-08-10T03:12:15.821Z,1.80
2017-08-10T03:14:43.894Z,1.95
2017-08-10T03:17:11.966Z,2.30
2017-08-10T03:19:40.833Z,2.87
2017-08-10T03:22:08.902Z,2.47
2017-08-10T03:24:36.974Z,2.70
2017-08-10T03:27:05.070Z,3.42
2017-08-10T03:29:33.133Z,3.60
2017-08-10T03:32:01.230Z,4.12
2017-08-10T03:34:30.067Z,4.10
2017-08-10T03:36:58.154Z,4.28
2017-08-10T03:39:26.626Z,3.90
2017-08-10T03:41:54.721Z,3.70
2017-08-10T03:44:24.298Z,3.83
2017-08-10T03:46:52.371Z,3.78
2017-08-10T03:49:20.866Z,4.62
2017-08-10T03:51:48.938Z,4.97
2017-08-10T03:54:17.010Z,5.30
2017-08-10T03:56:45.102Z,7.28
2017-08-10T03:59:13.196Z,7.10
2017-08-10T04:01:42.030Z,5.95
2017-08-10T04:04:10.886Z,5.47
2017-08-10T04:06:38.958Z,4.32
2017-08-10T04:09:07.446Z,3.95
2017-08-10T04:11:35.515Z,4.05
2017-08-10T04:14:03.620Z,5.07
2017-08-10T04:16:31.690Z,4.60
2017-08-10T04:19:00.159Z,3.87
2017-08-10T04:21:28.299Z,4.57
2017-08-10T04:23:56.369Z,3.90
2017-08-10T04:26:24.442Z,3.80
2017-08-10T04:28:52.930Z,2.90
2017-08-10T04:31:21.767Z,3.78
2017-08-10T04:33:49.915Z,2.60
2017-08-10T04:36:17.976Z,3.20
2017-08-10T04:38:46.082Z,3.42
2017-08-10T04:41:14.150Z,3.33
2017-08-10T04:43:42.223Z,3.67
2017-08-10T04:46:11.090Z,3.72
2017-08-10T04:48:39.157Z,3.97
2017-08-10T04:51:07.668Z,4.53
2017-08-10T04:53:35.733Z,4.75
2017-08-10T04:56:04.569Z,4.30
2017-08-10T04:58:33.415Z,5.10
2017-08-10T05:01:01.900Z,4.85
2017-08-10T05:03:30.990Z,4.30
2017-08-10T05:05:59.086Z,4.50
2017-08-10T05:08:27.162Z,4.70
2017-08-10T05:10:55.248Z,4.32
2017-08-10T05:13:23.314Z,3.85
2017-08-10T05:15:52.181Z,3.50
2017-08-10T05:18:20.654Z,3.25
2017-08-10T05:20:48.730Z,3.90
2017-08-10T05:23:16.822Z,4.57
2017-08-10T05:25:44.889Z,3.45
2017-08-10T05:28:12.994Z,3.12
2017-08-10T05:30:41.459Z,2.83
2017-08-10T05:33:09.530Z,2.90
2017-08-10T05:35:38.398Z,2.65
2017-08-10T05:38:06.466Z,3.80
2017-08-10T05:40:34.537Z,2.85
2017-08-10T05:43:02.638Z,2.70
2017-08-10T05:45:30.706Z,2.70
2017-08-10T05:47:58.797Z,2.65
2017-08-10T05:50:27.654Z,2.60
2017-08-10T05:52:55.727Z,2.80
2017-08-10T05:55:23.818Z,2.78
2017-08-10T05:57:51.894Z,2.58
2017-08-10T06:00:20.762Z,2.87
2017-08-10T06:02:48.838Z,3.42
2017-08-10T06:05:17.303Z,2.60
2017-08-10T06:07:45.401Z,2.67
2017-08-10T06:10:13.506Z,2.67
2017-08-10T06:12:41.577Z,2.85
2017-08-10T06:15:09.650Z,3.08
2017-08-10T06:17:38.514Z,3.08
2017-08-10T06:20:06.578Z,2.62
2017-08-10T06:22:34.666Z,3.15
2017-08-10T06:25:02.855Z,2.95
2017-08-10T06:27:31.690Z,1.95
2017-08-10T06:29:59.798Z,2.17
2017-08-10T06:32:27.858Z,2.60
2017-08-10T06:34:55.974Z,2.40
2017-08-10T06:37:24.041Z,2.50
2017-08-10T06:39:52.111Z,2.42
2017-08-10T06:42:20.603Z,2.67
2017-08-10T06:44:48.694Z,2.53
2017-08-10T06:47:16.762Z,2.50
2017-08-10T06:49:44.862Z,2.30
2017-08-10T06:52:12.928Z,2.42
2017-08-10T06:54:40.993Z,2.35
2017-08-10T06:57:09.086Z,2.35
2017-08-10T06:59:37.186Z,1.98
2017-08-10T07:02:06.022Z,2.10
2017-08-10T07:04:34.089Z,2.40
2017-08-10T07:07:02.203Z,2.40
2017-08-10T07:09:30.665Z,2.50
2017-08-10T07:11:58.739Z,2.75
2017-08-10T07:14:26.833Z,2.95
2017-08-10T07:16:54.912Z,2.30
2017-08-10T07:19:23.742Z,2.15
2017-08-10T07:21:51.834Z,2.33
2017-08-10T07:24:19.910Z,2.15
2017-08-10T07:26:48.015Z,2.08
2017-08-10T07:29:16.091Z,2.03
2017-08-10T07:31:44.953Z,1.80
2017-08-10T07:34:13.046Z,1.95
2017-08-10T07:36:41.514Z,1.67
2017-08-10T07:39:09.582Z,2.30
2017-08-10T07:41:37.680Z,2.20
2017-08-10T07:44:05.741Z,1.60
2017-08-10T07:46:33.853Z,1.62
2017-08-10T07:49:02.696Z,2.30
2017-08-10T07:51:30.757Z,3.00
2017-08-10T07:53:58.850Z,2.00
2017-08-10T07:56:26.926Z,4.28
2017-08-10T07:58:55.026Z,3.53
2017-08-10T08:01:23.094Z,2.58
2017-08-10T08:03:51.171Z,2.25
2017-08-10T08:06:20.034Z,1.85
2017-08-10T08:08:48.874Z,1.90
2017-08-10T08:11:16.945Z,2.30
2017-08-10T08:13:45.050Z,1.50
2017-08-10T08:16:16.500Z,1.90
2017-08-10T08:18:44.583Z,1.95
2017-08-10T08:21:12.658Z,1.83
2017-08-10T08:23:40.766Z,1.90
2017-08-10T08:26:09.250Z,1.67
2017-08-10T08:28:37.310Z,1.90
2017-08-10T08:31:05.810Z,1.80
2017-08-10T08:33:33.874Z,2.03
2017-08-10T08:36:02.345Z,2.05
2017-08-10T08:38:30.437Z,2.30
2017-08-10T08:40:58.509Z,1.80
2017-08-10T08:43:26.607Z,2.17
2017-08-10T08:45:55.090Z,1.87
2017-08-10T08:48:23.166Z,2.20
2017-08-10T08:50:51.264Z,2.08
2017-08-10T08:53:19.341Z,2.03
2017-08-10T08:55:47.431Z,1.85
2017-08-10T08:58:16.277Z,2.47
2017-08-10T09:00:44.350Z,2.00
2017-08-10T09:03:12.457Z,1.85
2017-08-10T09:05:41.294Z,1.75
2017-08-10T09:08:09.369Z,1.65
2017-08-10T09:10:37.464Z,2.00
2017-08-10T09:13:05.549Z,2.35
2017-08-10T09:15:34.395Z,1.67
2017-08-10T09:18:02.486Z,2.30
2017-08-10T09:20:30.583Z,2.78
2017-08-10T09:22:58.654Z,2.42
2017-08-10T09:25:26.766Z,2.22
2017-08-10T09:27:54.834Z,2.75
2017-08-10T09:30:22.914Z,2.40
2017-08-10T09:32:51.023Z,2.30
2017-08-10T09:35:19.093Z,2.53
2017-08-10T09:37:47.162Z,2.45
2017-08-10T09:40:15.274Z,2.47
2017-08-10T09:42:44.105Z,2.72
2017-08-10T09:45:12.950Z,2.40
2017-08-10T09:47:41.050Z,2.10
2017-08-10T09:50:09.126Z,2.30
2017-08-10T09:52:37.186Z,2.20
2017-08-10T09:55:05.710Z,2.12
2017-08-10T09:57:33.885Z,2.37
2017-08-10T10:00:01.981Z,2.42
2017-08-10T10:02:30.453Z,2.10
2017-08-10T10:04:58.614Z,1.70
2017-08-10T10:07:26.705Z,1.67
2017-08-10T10:09:55.546Z,1.70
2017-08-10T10:12:23.661Z,1.35
2017-08-10T10:14:51.729Z,1.30
2017-08-10T10:17:19.802Z,1.50
2017-08-10T10:19:47.914Z,1.75
2017-08-10T10:22:15.998Z,1.70
2017-08-10T10:24:44.068Z,1.35
2017-08-10T10:27:12.154Z,6.20
2017-08-10T10:29:40.231Z,2.90
2017-08-10T10:32:09.132Z,1.50
2017-08-10T10:34:37.178Z,1.48
2017-08-10T10:37:05.674Z,1.10
2017-08-10T10:39:33.746Z,1.20
2017-08-10T10:42:01.814Z,1.52
2017-08-10T10:44:29.906Z,1.85
2017-08-10T10:46:57.970Z,1.40
2017-08-10T10:49:26.062Z,1.58
2017-08-10T10:51:54.163Z,1.55
2017-08-10T10:54:22.998Z,1.20
2017-08-10T10:56:51.071Z,1.30
2017-08-10T10:59:19.162Z,1.10
2017-08-10T11:01:47.250Z,1.50
2017-08-10T11:04:15.350Z,1.20
2017-08-10T11:06:43.427Z,1.15
2017-08-10T11:09:12.250Z,1.60
2017-08-10T11:11:40.347Z,1.20
2017-08-10T11:14:08.418Z,1.20
2017-08-10T11:16:36.877Z,1.20
2017-08-10T11:19:05.231Z,1.40
2017-08-10T11:21:33.301Z,1.30
2017-08-10T11:24:01.374Z,1.40
2017-08-10T11:26:29.438Z,1.48
2017-08-10T11:28:57.533Z,1.27
2017-08-10T11:31:25.606Z,1.00
2017-08-10T11:33:53.676Z,1.20
2017-08-10T11:36:21.778Z,1.90
2017-08-10T11:38:49.845Z,1.55
2017-08-10T11:41:17.918Z,1.20
2017-08-10T11:43:46.010Z,1.15
2017-08-10T11:46:14.470Z,1.30
2017-08-10T11:48:42.553Z,1.25
2017-08-10T11:51:10.627Z,1.30
2017-08-10T11:53:38.758Z,1.23
2017-08-10T11:56:07.598Z,0.90
2017-08-10T11:58:35.670Z,1.00
2017-08-10T12:01:03.761Z,1.23
2017-08-10T12:03:32.594Z,0.90
2017-08-10T12:06:01.082Z,1.20
2017-08-10T12:08:29.182Z,1.00
2017-08-10T12:10:57.742Z,0.93
2017-08-10T12:13:26.569Z,1.20
2017-08-10T12:15:55.027Z,1.55
2017-08-10T12:18:23.863Z,0.90
2017-08-10T12:20:52.791Z,1.48
2017-08-10T12:23:21.254Z,2.30
2017-08-10T12:25:49.354Z,1.20
2017-08-10T12:28:17.814Z,1.30
2017-08-10T12:30:46.651Z,1.40
2017-08-10T12:33:15.510Z,1.40
2017-08-10T12:35:43.580Z,1.27
2017-08-10T12:38:11.678Z,1.12
2017-08-10T12:40:39.749Z,1.42
2017-08-10T12:43:07.832Z,1.20
2017-08-10T12:45:35.913Z,1.50
2017-08-10T12:48:04.773Z,1.55
2017-08-10T12:50:32.837Z,1.42
2017-08-10T12:53:00.927Z,1.50
2017-08-10T12:55:28.993Z,1.35
2017-08-10T12:57:57.122Z,1.30
2017-08-10T13:00:25.581Z,1.67
2017-08-10T13:02:54.420Z,1.20
2017-08-10T13:05:22.515Z,1.73
2017-08-10T13:07:50.573Z,1.35
2017-08-10T13:10:18.698Z,1.40
2017-08-10T13:12:47.530Z,1.50
2017-08-10T13:15:15.598Z,1.75
2017-08-10T13:17:43.690Z,2.12
2017-08-10T13:20:11.758Z,2.10
2017-08-10T13:22:39.862Z,1.87
2017-08-10T13:25:08.327Z,1.80
2017-08-10T13:27:36.392Z,2.10
2017-08-10T13:30:04.483Z,2.30
2017-08-10T13:32:33.314Z,2.42
2017-08-10T13:35:01.406Z,2.20
2017-08-10T13:37:29.870Z,2.37
2017-08-10T13:39:57.963Z,2.00
2017-08-10T13:42:26.031Z,2.35
2017-08-10T13:44:54.122Z,2.70
2017-08-10T13:47:22.215Z,2.42
2017-08-10T13:49:51.088Z,2.58
2017-08-10T13:52:20.694Z,3.37
2017-08-10T13:54:48.761Z,2.28
2017-08-10T13:57:16.835Z,2.80
2017-08-10T13:59:44.931Z,2.25
2017-08-10T14:02:13.398Z,2.30
2017-08-10T14:04:41.498Z,2.70
2017-08-10T14:07:10.339Z,2.25
2017-08-10T14:09:38.409Z,3.03
2017-08-10T14:12:07.270Z,2.45
2017-08-10T14:14:35.338Z,3.10
2017-08-10T14:17:03.435Z,2.60
2017-08-10T14:19:31.501Z,2.87
2017-08-10T14:21:59.590Z,3.05
2017-08-10T14:24:27.686Z,2.87
2017-08-10T14:26:55.758Z,3.00
2017-08-10T14:29:23.856Z,3.00
2017-08-10T14:31:52.722Z,2.75
2017-08-10T14:34:20.818Z,2.90
2017-08-10T14:36:49.681Z,2.97
2017-08-10T14:39:17.754Z,3.08
2017-08-10T14:41:45.827Z,2.85
2017-08-10T14:44:14.691Z,2.55
2017-08-10T14:46:42.778Z,3.12
2017-08-10T14:49:10.931Z,3.00
2017-08-10T14:51:39.015Z,3.10
2017-08-10T14:54:07.084Z,3.42
2017-08-10T14:56:35.198Z,3.40
2017-08-10T14:59:03.670Z,2.87
2017-08-10T15:01:32.510Z,2.75
2017-08-10T15:04:00.602Z,2.58
2017-08-10T15:06:28.678Z,2.40
2017-08-10T15:08:56.787Z,2.40
2017-08-10T15:13:45.101Z,2.10
2017-08-10T15:16:13.191Z,2.50
2017-08-10T15:18:41.267Z,2.00
2017-08-10T15:21:09.423Z,2.20
2017-08-10T15:23:37.642Z,2.40
2017-08-10T15:26:06.275Z,2.28
2017-08-10T15:28:35.079Z,2.30
2017-08-10T15:31:03.153Z,2.35
2017-08-10T15:33:31.323Z,2.97
2017-08-10T15:36:00.303Z,2.25
2017-08-10T15:38:29.118Z,2.62
2017-08-10T15:40:57.190Z,2.42
2017-08-10T15:43:25.691Z,2.50
2017-08-10T15:45:54.521Z,2.70
2017-08-10T15:48:22.621Z,2.58
2017-08-10T15:50:50.695Z,2.55
2017-08-10T15:53:18.764Z,4.00
2017-08-10T15:55:46.861Z,3.17
2017-08-10T15:58:14.938Z,2.90
2017-08-10T16:00:43.777Z,2.83
2017-08-10T16:03:11.894Z,2.65
2017-08-10T16:05:39.973Z,1.90
2017-08-10T16:08:08.042Z,3.00
2017-08-10T16:10:36.150Z,2.55
2017-08-10T16:13:04.990Z,2.25
2017-08-10T16:15:33.066Z,2.25
2017-08-10T16:18:01.160Z,2.85
2017-08-10T16:20:29.992Z,2.80
2017-08-10T16:22:58.058Z,2.58
2017-08-10T16:25:26.149Z,2.70
2017-08-10T16:27:54.229Z,3.05
2017-08-10T16:30:22.321Z,2.50
2017-08-10T16:32:50.415Z,2.58
2017-08-10T16:35:18.883Z,2.85
2017-08-10T16:37:47.745Z,2.95
2017-08-10T16:40:15.820Z,2.65
2017-08-10T16:42:43.891Z,2.78
2017-08-10T16:45:11.986Z,3.30
2017-08-10T16:47:40.054Z,2.60
2017-08-10T16:50:08.125Z,2.20
2017-08-10T16:52:36.226Z,2.50
2017-08-10T16:55:04.339Z,3.17
2017-08-10T16:57:32.410Z,3.00
2017-08-10T17:00:00.473Z,2.50
2017-08-10T17:02:28.581Z,3.42
2017-08-10T17:04:56.650Z,3.53
2017-08-10T17:07:24.721Z,3.10
2017-08-10T17:09:52.827Z,2.60
2017-08-10T17:12:20.901Z,3.05
2017-08-10T17:14:48.978Z,2.67
2017-08-10T17:17:17.094Z,2.70
2017-08-10T17:19:45.175Z,2.40
2017-08-10T17:22:13.245Z,2.35
2017-08-10T17:24:41.341Z,2.08
2017-08-10T17:27:09.414Z,2.30
2017-08-10T17:29:37.878Z,2.67
2017-08-10T17:32:05.969Z,2.85
2017-08-10T17:34:34.037Z,1.85
2017-08-10T17:37:02.150Z,2.17
2017-08-10T17:39:30.212Z,2.50
2017-08-10T17:41:58.282Z,1.80
2017-08-10T17:44:26.372Z,2.08
2017-08-10T17:46:54.466Z,1.90
2017-08-10T17:49:22.554Z,1.73
2017-08-10T17:51:51.117Z,1.80
2017-08-10T17:54:19.170Z,1.50
2017-08-10T17:56:47.238Z,2.10
2017-08-10T17:59:15.738Z,2.22
2017-08-10T18:01:43.816Z,2.28
2017-08-10T18:04:11.884Z,1.77
2017-08-10T18:06:39.981Z,1.80
2017-08-10T18:09:08.058Z,1.92
2017-08-10T18:11:36.135Z,2.47
2017-08-10T18:14:04.270Z,2.00
2017-08-10T18:16:32.353Z,2.22
2017-08-10T18:19:00.426Z,2.20
2017-08-10T18:21:28.519Z,2.30
2017-08-10T18:23:56.614Z,2.67
2017-08-10T18:26:24.705Z,2.78
2017-08-10T18:28:52.773Z,2.95
2017-08-10T18:31:20.894Z,3.00
2017-08-10T18:33:48.974Z,2.85
2017-08-10T18:36:18.546Z,3.28
2017-08-10T18:38:46.639Z,2.87
2017-08-10T18:41:15.191Z,3.08
2017-08-10T18:43:43.312Z,2.90
2017-08-10T18:46:11.798Z,3.17
2017-08-10T18:48:39.894Z,3.15
2017-08-10T18:51:07.991Z,3.05
2017-08-10T18:53:36.061Z,3.00
2017-08-10T18:56:04.942Z,3.00
2017-08-10T18:58:33.043Z,3.20
2017-08-10T19:01:01.910Z,3.78
2017-08-10T19:03:29.989Z,3.08
2017-08-10T19:05:58.907Z,3.10
2017-08-10T19:08:26.971Z,3.08
2017-08-10T19:10:55.043Z,3.08
2017-08-10T19:13:23.119Z,2.92
2017-08-10T19:15:51.295Z,2.90
2017-08-10T19:18:20.090Z,3.75
2017-08-10T19:20:48.166Z,3.37
2017-08-10T19:23:16.328Z,2.80
2017-08-10T19:25:45.125Z,3.30
2017-08-10T19:28:13.200Z,2.75
2017-08-10T19:30:41.290Z,2.78
2017-08-10T19:33:09.373Z,3.30
2017-08-10T19:35:37.514Z,2.58
2017-08-10T19:38:05.590Z,2.45
2017-08-10T19:40:33.677Z,3.12
2017-08-10T19:43:01.759Z,2.75
2017-08-10T19:45:29.825Z,3.35
2017-08-10T19:47:57.941Z,3.20
2017-08-10T19:50:26.015Z,3.05
2017-08-10T19:52:54.850Z,3.37
2017-08-10T19:55:22.954Z,3.37
2017-08-10T19:57:51.865Z,3.47
2017-08-10T20:00:19.929Z,4.25
2017-08-10T20:02:47.999Z,3.40
2017-08-10T20:05:16.096Z,4.05
2017-08-10T20:07:44.207Z,3.33
2017-08-10T20:10:12.274Z,4.10
2017-08-10T20:12:40.342Z,4.00
2017-08-10T20:15:08.433Z,3.62
2017-08-10T20:17:36.506Z,3.45
2017-08-10T20:20:04.602Z,3.87
2017-08-10T20:22:32.694Z,3.40
2017-08-10T20:25:00.757Z,4.12
2017-08-10T20:27:28.858Z,3.60
2017-08-10T20:29:56.981Z,3.97
2017-08-10T20:32:25.837Z,3.95
2017-08-10T20:34:53.930Z,4.50
2017-08-10T20:37:22.003Z,4.95
2017-08-10T20:39:50.106Z,4.80
2017-08-10T20:42:18.185Z,4.40
2017-08-10T20:44:46.261Z,4.50
2017-08-10T20:47:14.390Z,4.07
2017-08-10T20:49:42.453Z,4.55
2017-08-10T20:52:10.526Z,4.78
2017-08-10T20:54:38.642Z,4.80
2017-08-10T20:57:06.718Z,4.20
2017-08-10T20:59:34.793Z,4.50
2017-08-10T21:02:02.880Z,4.07
2017-08-10T21:04:30.949Z,4.20
2017-08-10T21:06:59.042Z,3.97
2017-08-10T21:09:27.143Z,4.15
2017-08-10T21:11:55.214Z,4.20
2017-08-10T21:14:23.289Z,3.55
2017-08-10T21:16:51.381Z,3.80
2017-08-10T21:19:20.214Z,3.40
2017-08-10T21:21:48.302Z,4.00
2017-08-10T21:24:16.373Z,3.87
2017-08-10T21:26:44.558Z,4.50
2017-08-10T21:29:12.625Z,3.20
2017-08-10T21:31:40.693Z,3.37
2017-08-10T21:34:08.822Z,2.87
2017-08-10T21:36:36.889Z,2.97
2017-08-10T21:39:04.969Z,3.37
2017-08-10T21:41:33.490Z,3.30
2017-08-10T21:44:01.570Z,2.80
2017-08-10T21:46:29.662Z,3.08
2017-08-10T21:48:58.498Z,2.67
2017-08-10T21:51:26.593Z,3.17
2017-08-10T21:53:54.670Z,2.97
2017-08-10T21:56:22.746Z,2.97
2017-08-10T21:58:50.834Z,3.15
2017-08-10T22:01:18.901Z,4.05
2017-08-10T22:03:47.006Z,3.45
2017-08-10T22:06:15.082Z,3.00
2017-08-10T22:08:43.155Z,3.22
2017-08-10T22:11:11.251Z,3.00
2017-08-10T22:13:39.317Z,2.80
2017-08-10T22:16:07.409Z,3.45
2017-08-10T22:18:35.477Z,3.08
2017-08-10T22:21:03.573Z,3.45
2017-08-10T22:23:31.681Z,3.50
2017-08-10T22:25:59.738Z,3.40
2017-08-10T22:28:28.573Z,3.72
2017-08-10T22:30:56.675Z,3.83
2017-08-10T22:33:24.754Z,3.95
2017-08-10T22:35:52.822Z,3.65
2017-08-10T22:38:20.914Z,2.87
2017-08-10T22:40:49.750Z,3.37
2017-08-10T22:43:17.839Z,3.85
2017-08-10T22:45:45.922Z,3.22
2017-08-10T22:48:14.005Z,3.20
2017-08-10T22:50:42.114Z,3.53
2017-08-10T22:53:10.185Z,2.92
2017-08-10T22:55:38.258Z,3.60
2017-08-10T22:58:06.371Z,3.40
2017-08-10T23:00:34.430Z,3.00
2017-08-10T23:03:02.507Z,3.17
2017-08-10T23:05:30.598Z,3.47
2017-08-10T23:07:58.674Z,3.30
2017-08-10T23:10:26.737Z,2.87
2017-08-10T23:12:54.836Z,3.22
2017-08-10T23:15:22.934Z,3.55
2017-08-10T23:17:51.001Z,4.25
2017-08-10T23:20:19.074Z,3.58
2017-08-10T23:22:47.166Z,3.05
2017-08-10T23:25:15.238Z,3.60
2017-08-10T23:27:43.354Z,3.42
2017-08-10T23:30:11.455Z,4.15
2017-08-10T23:32:39.522Z,4.35
2017-08-10T23:35:08.383Z,3.40
2017-08-10T23:37:36.474Z,4.50
2017-08-10T23:40:04.566Z,3.90
2017-08-10T23:42:32.653Z,4.22
2017-08-10T23:45:00.730Z,3.80
2017-08-10T23:47:28.822Z,4.32
2017-08-10T23:49:56.909Z,4.15
2017-08-10T23:52:24.982Z,4.68
2017-08-10T23:54:53.069Z,4.00
2017-08-10T23:57:21.138Z,4.90
2017-08-10T23:59:49.250Z,4.50
